Time;durP1;ratioP1;P1;durP2;ratioP2;P2;SDS_P1;SDS_P2;PMS_P1;PMS_P2;Temp;Humidity;BMP_temperature;BMP_pressure;BME280_temperature;BME280_humidity;BME280_pressure;Samples;Min_cycle;Max_cycle;Signal;HPM_P1;HPM_P2
2023/01/05 00:01:55;;;;;;;19.20;4.50;;;12.70;79.00;;;;;;5099628;28;20063;-76
2023/01/05 00:04:21;;;;;;;20.40;4.30;;;12.70;78.90;;;;;;5110585;28;20164;-76
2023/01/05 00:06:47;;;;;;;18.55;4.05;;;12.60;79.00;;;;;;5113220;28;20102;-76
2023/01/05 00:09:15;;;;;;;18.52;4.43;;;12.60;79.00;;;;;;5115646;28;20019;-76
2023/01/05 00:22:47;;;;;;;21.30;4.45;;;12.60;79.10;;;;;;5118855;27;20344;-76
2023/01/05 00:25:20;;;;;;;16.40;4.15;;;12.60;79.10;;;;;;5114986;28;20032;-76
2023/01/05 00:27:49;;;;;;;17.08;4.30;;;12.50;79.10;;;;;;5116280;28;20105;-76
2023/01/05 00:30:25;;;;;;;16.88;3.80;;;12.50;79.10;;;;;;5115392;28;20436;-76
2023/01/05 00:32:52;;;;;;;18.95;3.67;;;12.50;79.20;;;;;;5120208;27;20024;-76
2023/01/05 00:35:18;;;;;;;20.40;3.85;;;12.50;79.30;;;;;;5079768;28;20098;-76
2023/01/05 00:37:44;;;;;;;20.27;4.28;;;12.50;79.90;;;;;;5092949;28;20031;-76
2023/01/05 00:40:14;;;;;;;18.65;4.43;;;12.50;79.20;;;;;;5115240;28;20360;-76
2023/01/05 00:42:40;;;;;;;20.40;4.88;;;12.50;79.20;;;;;;5110371;28;20445;-76
2023/01/05 00:45:07;;;;;;;17.20;3.53;;;12.40;79.20;;;;;;5097771;28;20030;-76
2023/01/05 00:47:33;;;;;;;17.10;4.07;;;12.40;79.20;;;;;;5097740;28;20020;-76
2023/01/05 00:49:58;;;;;;;18.48;3.60;;;12.40;79.20;;;;;;5114829;28;20031;-76
2023/01/05 00:52:24;;;;;;;15.35;3.13;;;12.40;79.30;;;;;;5112271;28;20035;-76
2023/01/05 00:54:50;;;;;;;21.50;4.78;;;12.50;79.30;;;;;;5112703;28;20036;-76
2023/01/05 00:57:16;;;;;;;16.73;3.85;;;12.40;79.20;;;;;;5095234;28;20020;-76
2023/01/05 00:59:41;;;;;;;26.17;4.82;;;12.40;79.20;;;;;;5116167;28;20452;-76
2023/01/05 01:02:08;;;;;;;20.80;4.70;;;12.40;79.30;;;;;;5113184;28;20035;-76
2023/01/05 01:04:34;;;;;;;20.90;4.40;;;12.40;79.30;;;;;;5109540;28;20503;-76
2023/01/05 01:07:01;;;;;;;16.83;4.10;;;12.40;79.40;;;;;;5098245;28;20035;-76
2023/01/05 01:09:27;;;;;;;22.42;3.95;;;12.30;79.40;;;;;;5097314;28;20333;-76
2023/01/05 01:11:52;;;;;;;19.20;4.88;;;12.30;79.50;;;;;;5114415;28;20148;-76
2023/01/05 01:14:18;;;;;;;22.77;4.72;;;12.30;79.50;;;;;;5113409;28;20487;-76
2023/01/05 01:16:44;;;;;;;19.00;4.45;;;12.30;79.50;;;;;;5115188;28;20038;-76
2023/01/05 01:19:15;;;;;;;20.27;4.63;;;12.30;79.50;;;;;;5110074;28;20097;-76
2023/01/05 01:21:42;;;;;;;19.15;4.53;;;12.30;79.50;;;;;;5120712;27;20024;-76
2023/01/05 01:24:13;;;;;;;27.10;5.53;;;12.30;79.50;;;;;;5095021;28;20023;-76
2023/01/05 01:26:39;;;;;;;19.90;3.60;;;12.30;79.50;;;;;;5115242;28;20024;-76
2023/01/05 01:29:04;;;;;;;20.65;4.38;;;12.30;79.60;;;;;;5114944;28;20032;-76
2023/01/05 01:31:30;;;;;;;18.60;3.97;;;12.30;79.60;;;;;;5095398;28;20030;-76
2023/01/05 01:33:56;;;;;;;19.80;3.97;;;12.30;79.70;;;;;;5107574;28;20337;-76
2023/01/05 01:36:22;;;;;;;19.67;4.38;;;12.20;79.70;;;;;;5104640;28;20031;-76
2023/01/05 01:38:48;;;;;;;18.35;4.32;;;12.20;79.70;;;;;;5093885;28;20023;-76
2023/01/05 01:41:14;;;;;;;20.13;4.65;;;12.20;79.70;;;;;;5094370;28;20475;-76
2023/01/05 01:43:52;;;;;;;16.17;4.13;;;12.20;80.60;;;;;;5127281;27;20075;-76
2023/01/05 01:46:21;;;;;;;16.85;4.28;;;12.20;79.80;;;;;;5095911;28;20024;-76
2023/01/05 01:49:03;;;;;;;21.55;4.43;;;12.20;79.80;;;;;;5113363;28;20110;-76
2023/01/05 01:51:43;;;;;;;21.50;4.57;;;12.30;79.90;;;;;;5123782;27;20026;-76
2023/01/05 01:54:13;;;;;;;21.13;4.57;;;12.30;79.90;;;;;;5093845;28;20028;-76
2023/01/05 01:56:49;;;;;;;22.80;4.68;;;12.20;79.80;;;;;;5112457;28;20032;-76
2023/01/05 01:59:16;;;;;;;20.92;4.70;;;12.20;79.80;;;;;;5117379;27;20447;-76
2023/01/05 02:01:42;;;;;;;20.80;4.03;;;12.30;79.90;;;;;;5094611;28;20035;-76
2023/01/05 02:04:08;;;;;;;20.38;4.20;;;12.30;80.60;;;;;;5112759;28;20078;-75
2023/01/05 02:06:35;;;;;;;23.23;4.82;;;12.30;79.90;;;;;;5113761;28;20024;-75
2023/01/05 02:09:01;;;;;;;16.67;3.95;;;12.30;79.90;;;;;;5113967;28;20055;-75
2023/01/05 02:11:57;;;;;;;15.90;4.32;;;12.30;80.00;;;;;;5110995;28;20027;-75
2023/01/05 02:14:28;;;;;;;18.23;3.83;;;12.30;80.00;;;;;;5127243;27;20051;-75
2023/01/05 02:16:54;;;;;;;;;;;12.30;80.00;;;;;;5129943;27;20036;-75
2023/01/05 02:19:40;;;;;;;23.38;4.20;;;12.30;80.00;;;;;;5113969;28;19915;-75
2023/01/05 02:22:17;;;;;;;22.23;4.38;;;12.30;80.00;;;;;;5114725;28;20043;-75
2023/01/05 02:24:55;;;;;;;15.70;3.80;;;12.30;80.00;;;;;;5112944;28;20085;-75
2023/01/05 02:27:39;;;;;;;20.55;3.65;;;12.30;80.00;;;;;;5120872;27;20474;-75
2023/01/05 02:30:49;;;;;;;22.13;5.05;;;12.30;80.00;;;;;;5112340;28;20031;-75
2023/01/05 02:33:19;;;;;;;19.85;4.00;;;12.30;80.00;;;;;;5105597;27;20032;-76
2023/01/05 02:36:01;;;;;;;16.77;3.78;;;12.30;80.00;;;;;;5111673;28;20034;-75
2023/01/05 02:38:36;;;;;;;16.90;3.50;;;12.30;80.10;;;;;;5107183;28;20086;-76
2023/01/05 02:41:30;;;;;;;15.40;4.18;;;12.30;80.10;;;;;;5092668;28;20081;-76
2023/01/05 02:43:57;;;;;;;17.48;4.15;;;12.30;80.10;;;;;;5111295;28;20036;-76
2023/01/05 02:46:23;;;;;;;19.27;3.90;;;12.20;80.00;;;;;;5112321;28;20019;-76
2023/01/05 02:48:53;;;;;;;17.52;4.25;;;12.20;80.10;;;;;;5113232;28;20016;-76
2023/01/05 02:51:25;;;;;;;19.07;4.50;;;12.30;80.10;;;;;;5108528;28;20452;-76
2023/01/05 02:54:02;;;;;;;18.52;3.67;;;12.30;80.10;;;;;;5106629;28;20082;-76
2023/01/05 02:56:42;;;;;;;19.95;3.88;;;12.30;80.10;;;;;;5110264;28;20028;-76
2023/01/05 02:59:22;;;;;;;18.50;4.50;;;12.30;80.10;;;;;;5111452;28;20020;-76
2023/01/05 03:02:05;;;;;;;17.30;4.25;;;12.30;80.10;;;;;;5117228;27;20061;-76
2023/01/05 03:04:45;;;;;;;19.45;3.80;;;12.30;80.10;;;;;;5108690;28;20023;-77
2023/01/05 03:07:15;;;;;;;17.80;4.35;;;12.30;80.10;;;;;;5104570;28;20016;-75
2023/01/05 03:09:44;;;;;;;21.55;4.75;;;12.20;80.10;;;;;;5109681;28;20024;-75
2023/01/05 03:15:31;;;;;;;21.98;4.18;;;12.20;80.10;;;;;;5110030;28;20019;-75
2023/01/05 03:18:13;;;;;;;20.08;5.03;;;12.30;80.20;;;;;;5110647;28;20035;-75
2023/01/05 03:20:46;;;;;;;19.70;4.28;;;12.30;80.20;;;;;;5109991;28;20030;-75
2023/01/05 03:38:22;;;;;;;17.08;3.88;;;12.30;80.10;;;;;;5111295;28;20031;-75
2023/01/05 03:40:51;;;;;;;15.30;3.42;;;12.30;80.10;;;;;;5107811;28;20028;-76
2023/01/05 03:43:19;;;;;;;17.63;3.85;;;12.20;80.10;;;;;;5109893;28;20101;-76
2023/01/05 03:45:55;;;;;;;20.77;4.13;;;12.30;80.20;;;;;;5095565;28;20084;-75
2023/01/05 03:48:27;;;;;;;15.48;4.50;;;12.30;80.20;;;;;;5121783;27;20031;-75
2023/01/05 03:50:52;;;;;;;25.20;4.65;;;12.30;80.20;;;;;;5114842;28;20024;-75
2023/01/05 03:53:20;;;;;;;18.90;4.28;;;12.30;80.20;;;;;;5111024;28;20019;-75
2023/01/05 03:55:46;;;;;;;23.65;4.35;;;12.20;80.20;;;;;;5100167;28;20122;-75
2023/01/05 03:58:12;;;;;;;19.00;4.18;;;12.30;80.30;;;;;;5097310;28;20046;-75
2023/01/05 04:00:42;;;;;;;19.13;3.63;;;12.30;80.30;;;;;;5116466;28;20023;-75
2023/01/05 04:03:10;;;;;;;20.55;3.72;;;12.30;80.40;;;;;;5093642;28;20139;-75
2023/01/05 04:05:37;;;;;;;15.48;3.47;;;12.30;80.30;;;;;;5096694;28;20046;-75
2023/01/05 04:08:03;;;;;;;16.92;3.97;;;12.30;80.30;;;;;;5109701;28;20048;-75
2023/01/05 04:10:31;;;;;;;15.05;3.42;;;12.30;80.20;;;;;;5094705;28;20110;-75
2023/01/05 04:12:58;;;;;;;25.33;3.85;;;12.30;80.20;;;;;;5110139;28;20027;-76
2023/01/05 04:15:24;;;;;;;21.95;4.25;;;12.30;80.20;;;;;;5095564;28;20020;-75
2023/01/05 04:17:52;;;;;;;14.25;4.13;;;12.30;80.20;;;;;;5095710;28;20444;-76
2023/01/05 04:20:18;;;;;;;23.10;4.50;;;12.30;80.20;;;;;;5107128;28;20062;-76
2023/01/05 04:22:44;;;;;;;19.75;4.25;;;12.30;80.20;;;;;;5110339;28;20032;-75
2023/01/05 04:25:10;;;;;;;14.25;3.20;;;12.30;80.20;;;;;;5087091;28;20111;-75
2023/01/05 04:27:36;;;;;;;18.23;3.63;;;12.30;80.20;;;;;;5092052;28;20028;-76
2023/01/05 04:30:04;;;;;;;14.70;3.58;;;12.20;80.20;;;;;;5089926;28;20020;-75
2023/01/05 04:32:32;;;;;;;22.70;4.85;;;12.20;80.30;;;;;;5110328;28;20016;-75
2023/01/05 04:34:58;;;;;;;14.70;3.17;;;12.20;80.30;;;;;;5107260;28;20078;-75
2023/01/05 04:37:24;;;;;;;17.40;3.80;;;12.30;80.30;;;;;;5107840;28;20447;-75
2023/01/05 04:39:51;;;;;;;21.17;3.97;;;12.20;80.20;;;;;;5107924;28;20042;-76
2023/01/05 04:42:18;;;;;;;12.98;3.35;;;12.20;80.20;;;;;;5091632;28;20035;-75
2023/01/05 04:44:47;;;;;;;15.60;4.07;;;12.20;80.30;;;;;;5105344;28;20039;-75
2023/01/05 04:47:12;;;;;;;18.65;3.92;;;12.20;80.30;;;;;;5110069;27;20043;-75
2023/01/05 04:49:40;;;;;;;16.58;4.18;;;12.20;80.30;;;;;;5110981;27;20505;-75
2023/01/05 04:52:07;;;;;;;12.75;3.08;;;12.20;80.30;;;;;;5114154;27;20152;-75
2023/01/05 04:54:34;;;;;;;15.95;3.55;;;12.20;80.30;;;;;;5096719;28;20024;-76
2023/01/05 04:57:00;;;;;;;17.98;3.55;;;12.20;80.30;;;;;;5104175;28;20034;-76
2023/01/05 04:59:27;;;;;;;13.85;4.15;;;12.30;80.40;;;;;;5092241;28;20027;-75
2023/01/05 05:01:55;;;;;;;19.08;4.35;;;12.30;80.30;;;;;;5109106;27;20038;-75
2023/01/05 05:04:21;;;;;;;14.98;3.70;;;12.30;80.30;;;;;;5107121;27;20020;-75
2023/01/05 05:06:48;;;;;;;15.65;3.30;;;12.30;80.30;;;;;;5107222;27;20371;-75
2023/01/05 05:09:14;;;;;;;15.30;3.20;;;12.30;80.30;;;;;;5110888;28;20064;-76
2023/01/05 05:11:40;;;;;;;25.08;4.68;;;12.30;80.40;;;;;;5109676;27;20028;-75
2023/01/05 05:14:07;;;;;;;18.80;3.65;;;12.20;80.40;;;;;;5084485;27;20459;-75
2023/01/05 05:16:33;;;;;;;22.08;4.40;;;12.20;80.50;;;;;;5089002;28;20057;-75
2023/01/05 05:19:00;;;;;;;21.38;4.53;;;12.20;80.50;;;;;;5111252;27;20057;-75
2023/01/05 05:21:26;;;;;;;22.65;4.70;;;12.20;80.60;;;;;;5108833;27;20020;-76
2023/01/05 05:23:52;;;;;;;19.42;4.00;;;12.20;80.70;;;;;;5100651;28;20097;-76
2023/01/05 05:26:18;;;;;;;22.30;4.00;;;12.20;80.70;;;;;;5091826;27;20337;-75
2023/01/05 05:28:46;;;;;;;17.52;3.30;;;12.20;80.80;;;;;;5086354;28;20016;-75
2023/01/05 05:31:11;;;;;;;17.75;3.72;;;12.20;80.80;;;;;;5085786;28;20035;-75
2023/01/05 05:33:37;;;;;;;21.95;4.18;;;12.20;80.80;;;;;;5108243;27;20019;-75
2023/01/05 05:36:04;;;;;;;21.55;4.03;;;12.30;81.50;;;;;;5103094;27;20341;-75
2023/01/05 05:38:29;;;;;;;18.30;3.67;;;12.30;80.80;;;;;;5102657;27;20027;-75
2023/01/05 05:40:55;;;;;;;17.45;3.72;;;12.20;80.70;;;;;;5104652;27;20115;-75
2023/01/05 05:43:21;;;;;;;18.17;3.83;;;12.30;80.70;;;;;;5129307;27;20459;-75
2023/01/05 05:45:46;;;;;;;20.70;3.97;;;12.30;80.80;;;;;;5117376;27;20019;-75
2023/01/05 05:48:12;;;;;;;15.88;3.35;;;12.20;80.80;;;;;;5115895;27;20027;-75
2023/01/05 05:50:38;;;;;;;12.27;3.38;;;12.30;80.90;;;;;;5092549;28;20043;-76
2023/01/05 05:53:05;;;;;;;19.67;3.80;;;12.30;80.80;;;;;;5117403;27;20032;-75
2023/01/05 05:55:32;;;;;;;17.48;4.63;;;12.30;80.80;;;;;;5099692;28;20024;-76
2023/01/05 05:57:58;;;;;;;16.45;4.30;;;12.30;80.80;;;;;;5112631;27;20086;-76
2023/01/05 06:00:23;;;;;;;20.10;3.17;;;12.30;80.80;;;;;;5096275;28;20136;-74
2023/01/05 06:02:49;;;;;;;16.55;4.22;;;12.30;80.80;;;;;;5113246;27;20020;-74
2023/01/05 06:05:15;;;;;;;17.90;3.83;;;12.30;80.80;;;;;;5112428;28;20081;-75
2023/01/05 06:07:40;;;;;;;17.63;3.85;;;12.30;80.80;;;;;;5112426;27;20114;-75
2023/01/05 06:10:08;;;;;;;16.33;3.70;;;12.30;80.70;;;;;;5115827;27;20468;-75
2023/01/05 06:12:33;;;;;;;20.52;4.43;;;12.30;80.70;;;;;;5116366;27;20042;-75
2023/01/05 06:14:59;;;;;;;16.55;4.07;;;12.30;80.70;;;;;;5098530;28;20032;-75
2023/01/05 06:17:25;;;;;;;17.38;3.97;;;12.30;80.70;;;;;;5098416;28;20424;-75
2023/01/05 06:19:50;;;;;;;16.08;3.25;;;12.30;80.80;;;;;;5116880;28;20032;-75
2023/01/05 06:22:16;;;;;;;16.55;3.58;;;12.30;80.70;;;;;;5117127;28;20028;-75
2023/01/05 06:24:42;;;;;;;15.43;3.63;;;12.40;80.90;;;;;;5121365;27;20042;-75
2023/01/05 06:27:07;;;;;;;15.27;4.32;;;12.30;80.80;;;;;;5125333;27;20031;-75
2023/01/05 06:29:33;;;;;;;17.33;4.43;;;12.30;80.80;;;;;;5116320;28;20024;-75
2023/01/05 06:31:59;;;;;;;17.88;3.97;;;12.30;80.80;;;;;;5114393;28;20083;-75
2023/01/05 06:34:24;;;;;;;22.63;5.10;;;12.30;80.80;;;;;;5108302;28;20039;-75
2023/01/05 06:36:50;;;;;;;20.70;3.67;;;12.30;81.50;;;;;;5125517;27;20031;-75
2023/01/05 06:39:15;;;;;;;16.55;3.42;;;12.30;80.90;;;;;;5110225;28;20059;-76
2023/01/05 06:41:41;;;;;;;16.50;3.33;;;12.30;80.90;;;;;;5096094;28;20023;-75
2023/01/05 06:44:08;;;;;;;17.35;4.20;;;12.30;80.90;;;;;;5111959;28;20383;-75
2023/01/05 06:46:33;;;;;;;17.60;3.65;;;12.30;80.90;;;;;;5114323;28;20429;-76
2023/01/05 06:48:59;;;;;;;14.88;3.33;;;12.30;81.50;;;;;;5117875;27;20034;-74
2023/01/05 06:51:25;;;;;;;17.58;3.15;;;12.30;80.90;;;;;;5127092;27;20024;-74
2023/01/05 06:53:52;;;;;;;21.58;3.72;;;12.40;81.60;;;;;;5113610;28;20028;-75
2023/01/05 06:56:17;;;;;;;19.15;4.57;;;12.40;80.90;;;;;;5113583;28;20035;-75
2023/01/05 06:58:43;;;;;;;19.17;4.53;;;12.40;81.00;;;;;;5113445;28;20024;-75
2023/01/05 07:01:09;;;;;;;17.75;4.13;;;12.40;80.90;;;;;;5111073;28;20035;-75
2023/01/05 07:03:34;;;;;;;18.08;3.47;;;12.50;81.00;;;;;;5099199;28;20439;-76
2023/01/05 07:06:00;;;;;;;15.90;4.15;;;12.40;80.90;;;;;;5103642;28;20028;-75
2023/01/05 07:08:25;;;;;;;19.60;4.40;;;12.50;81.00;;;;;;5113584;28;20034;-76
2023/01/05 07:10:51;;;;;;;17.00;4.63;;;12.50;81.00;;;;;;5113506;28;20115;-75
2023/01/05 07:13:17;;;;;;;20.55;3.75;;;12.50;81.00;;;;;;5093246;28;20032;-76
2023/01/05 07:15:42;;;;;;;17.45;3.65;;;12.50;81.10;;;;;;5113532;28;20038;-77
2023/01/05 07:18:08;;;;;;;20.38;3.60;;;12.50;81.10;;;;;;5109598;28;20035;-77
2023/01/05 07:20:34;;;;;;;21.30;3.83;;;12.50;81.10;;;;;;5106955;28;20122;-76
2023/01/05 07:23:01;;;;;;;18.45;3.70;;;12.40;81.10;;;;;;5108610;28;20314;-77
2023/01/05 07:25:30;;;;;;;18.73;4.03;;;12.40;81.10;;;;;;5122643;27;20033;-76
2023/01/05 07:27:56;;;;;;;16.30;3.72;;;12.40;81.10;;;;;;5101747;27;20027;-76
2023/01/05 07:30:23;;;;;;;20.55;4.25;;;12.50;81.10;;;;;;5108169;27;20067;-76
2023/01/05 07:32:48;;;;;;;17.83;4.13;;;12.40;81.10;;;;;;5109813;28;20043;-76
2023/01/05 07:35:14;;;;;;;23.60;4.47;;;12.40;81.10;;;;;;5079631;28;20027;-77
2023/01/05 07:37:40;;;;;;;22.10;4.55;;;12.40;81.10;;;;;;5112126;28;20055;-76
2023/01/05 07:40:06;;;;;;;20.63;4.75;;;12.40;81.20;;;;;;5083268;28;20089;-76
2023/01/05 07:42:32;;;;;;;18.60;3.78;;;12.40;81.20;;;;;;5096744;28;20039;-77
2023/01/05 07:44:58;;;;;;;18.58;3.72;;;12.40;81.30;;;;;;5107094;28;20432;-76
2023/01/05 07:47:23;;;;;;;18.10;4.00;;;12.40;81.30;;;;;;5112434;28;20084;-76
2023/01/05 07:49:49;;;;;;;23.25;4.65;;;12.30;81.30;;;;;;5113099;28;20027;-76
2023/01/05 07:52:16;;;;;;;24.90;4.68;;;12.30;81.30;;;;;;5113736;28;20028;-76
2023/01/05 07:54:44;;;;;;;20.63;4.60;;;12.40;81.50;;;;;;5092996;28;20032;-75
2023/01/05 07:57:10;;;;;;;18.35;3.15;;;12.30;81.30;;;;;;5106727;28;20039;-74
2023/01/05 07:59:35;;;;;;;16.10;4.28;;;12.40;81.40;;;;;;5103689;28;20027;-75
2023/01/05 08:02:01;;;;;;;20.63;4.03;;;12.40;81.30;;;;;;5096243;28;20026;-74
2023/01/05 08:04:27;;;;;;;19.88;3.25;;;12.40;81.30;;;;;;5109256;28;20020;-75
2023/01/05 08:06:54;;;;;;;18.63;4.18;;;12.30;81.40;;;;;;5077560;28;20099;-75
2023/01/05 08:12:05;;;;;;;24.02;3.95;;;12.30;81.30;;;;;;5110756;28;20035;-74
2023/01/05 08:14:30;;;;;;;24.20;4.38;;;12.40;81.40;;;;;;5085981;28;20028;-75
2023/01/05 08:16:56;;;;;;;19.88;4.13;;;12.40;81.40;;;;;;5112283;28;20488;-74
2023/01/05 08:19:22;;;;;;;19.25;3.35;;;12.40;81.40;;;;;;5111245;28;20023;-75
2023/01/05 08:21:47;;;;;;;18.00;3.95;;;12.40;81.40;;;;;;5097963;28;20027;-74
2023/01/05 08:24:13;;;;;;;14.63;3.25;;;12.40;81.40;;;;;;5114326;27;20080;-74
2023/01/05 08:26:38;;;;;;;16.50;4.00;;;12.40;81.40;;;;;;5116353;27;20078;-75
2023/01/05 08:29:04;;;;;;;24.45;4.18;;;12.40;81.30;;;;;;5099335;28;20027;-75
2023/01/05 08:31:35;;;;;;;19.95;4.13;;;12.40;81.30;;;;;;5110272;28;20068;-74
2023/01/05 08:34:03;;;;;;;18.40;3.97;;;12.40;81.30;;;;;;5117035;28;20441;-74
2023/01/05 08:36:30;;;;;;;17.27;3.90;;;12.40;81.20;;;;;;5093501;28;20030;-74
2023/01/05 08:38:56;;;;;;;21.95;4.72;;;12.50;81.20;;;;;;5095904;28;20032;-75
2023/01/05 08:41:28;;;;;;;17.80;3.92;;;12.50;81.10;;;;;;5108799;27;20055;-74
2023/01/05 08:43:56;;;;;;;21.10;4.72;;;12.50;81.10;;;;;;5116274;28;20040;-74
2023/01/05 08:46:25;;;;;;;17.80;3.92;;;12.50;81.10;;;;;;5116215;28;20456;-74
2023/01/05 08:48:56;;;;;;;24.48;4.25;;;12.50;81.00;;;;;;5099898;28;20020;-74
2023/01/05 08:51:22;;;;;;;19.65;4.18;;;12.50;81.00;;;;;;5122526;27;20096;-74
2023/01/05 08:53:48;;;;;;;15.23;3.88;;;12.50;81.00;;;;;;5107515;28;20059;-74
2023/01/05 08:56:14;;;;;;;20.75;4.32;;;12.50;80.90;;;;;;5107397;28;20066;-74
2023/01/05 08:58:41;;;;;;;14.77;4.10;;;12.50;80.90;;;;;;5116799;28;20110;-75
2023/01/05 09:01:11;;;;;;;17.20;4.40;;;12.50;80.80;;;;;;5115545;28;20352;-74
2023/01/05 09:03:37;;;;;;;20.55;3.97;;;12.50;80.80;;;;;;5125885;27;20050;-74
2023/01/05 09:06:04;;;;;;;19.52;4.38;;;12.60;80.80;;;;;;5090998;28;20432;-75
2023/01/05 09:08:31;;;;;;;16.80;3.63;;;12.60;80.70;;;;;;5114712;28;20026;-74
2023/01/05 09:11:12;;;;;;;19.23;4.75;;;12.60;80.70;;;;;;5115350;28;20031;-74
2023/01/05 09:13:39;;;;;;;18.58;3.72;;;12.60;80.70;;;;;;5116620;28;20023;-74
2023/01/05 09:16:07;;;;;;;16.67;3.15;;;12.50;80.70;;;;;;5113176;28;20039;-75
2023/01/05 09:18:34;;;;;;;19.58;3.45;;;12.50;80.60;;;;;;5104061;27;20073;-75
2023/01/05 09:21:00;;;;;;;15.15;3.80;;;12.50;80.60;;;;;;5115508;28;20113;-76
2023/01/05 09:23:26;;;;;;;23.27;4.80;;;12.50;80.60;;;;;;5113679;28;20043;-75
2023/01/05 09:25:51;;;;;;;17.83;3.28;;;12.50;80.60;;;;;;5116248;28;20080;-76
2023/01/05 09:28:17;;;;;;;15.38;3.50;;;12.50;80.50;;;;;;5106430;28;20035;-75
2023/01/05 09:30:43;;;;;;;19.83;4.13;;;12.50;80.40;;;;;;5114914;28;20076;-76
2023/01/05 09:33:09;;;;;;;21.27;4.28;;;12.60;80.50;;;;;;5113194;28;20481;-76
2023/01/05 09:35:34;;;;;;;16.92;4.20;;;12.50;80.40;;;;;;5109720;28;20035;-76
2023/01/05 09:38:00;;;;;;;19.25;3.30;;;12.50;81.00;;;;;;5111041;28;20020;-76
2023/01/05 09:40:29;;;;;;;18.10;3.70;;;12.60;80.30;;;;;;5115011;28;20019;-75
2023/01/05 09:42:55;;;;;;;20.75;4.15;;;12.60;80.30;;;;;;5112786;28;20464;-75
2023/01/05 09:45:27;;;;;;;20.65;4.40;;;12.60;80.30;;;;;;5111174;28;20027;-76
2023/01/05 09:47:54;;;;;;;15.13;3.30;;;12.60;80.20;;;;;;5105664;28;20020;-76
2023/01/05 09:50:23;;;;;;;18.92;4.22;;;12.60;80.20;;;;;;5114797;28;20035;-77
2023/01/05 09:52:51;;;;;;;16.55;3.88;;;12.60;80.20;;;;;;5093932;28;20103;-76
2023/01/05 09:55:19;;;;;;;15.15;3.53;;;12.60;80.10;;;;;;5115554;28;20356;-76
2023/01/05 09:57:57;;;;;;;15.27;3.13;;;12.60;80.10;;;;;;5113178;28;20035;-77
2023/01/05 10:00:25;;;;;;;18.17;4.63;;;12.60;80.10;;;;;;5097368;28;20019;-77
2023/01/05 10:03:05;;;;;;;15.68;3.67;;;12.60;80.10;;;;;;5087201;28;20032;-77
2023/01/05 10:05:33;;;;;;;14.18;3.25;;;12.60;79.90;;;;;;5110151;28;20344;-77
2023/01/05 10:08:29;;;;;;;19.27;4.07;;;12.60;79.90;;;;;;5111492;28;20031;-77
2023/01/05 10:14:08;;;;;;;16.85;3.92;;;12.70;79.80;;;;;;5110309;28;20024;-76
2023/01/05 10:16:34;;;;;;;16.95;3.78;;;12.70;79.80;;;;;;5097951;28;20039;-76
2023/01/05 10:19:01;;;;;;;20.42;3.50;;;12.70;79.80;;;;;;5111329;28;20023;-75
2023/01/05 10:22:06;;;;;;;16.75;4.30;;;12.70;79.60;;;;;;5109941;28;20337;-74
2023/01/05 10:24:50;;;;;;;17.67;3.72;;;12.80;79.60;;;;;;5125910;27;20050;-75
2023/01/05 10:27:47;;;;;;;14.75;4.25;;;12.80;79.60;;;;;;5114701;27;20439;-75
2023/01/05 10:30:38;;;;;;;13.88;3.53;;;12.80;79.60;;;;;;5100841;28;20111;-76
2023/01/05 10:33:33;;;;;;;20.73;4.93;;;12.80;79.50;;;;;;5101607;28;20107;-73
2023/01/05 10:36:25;;;;;;;15.85;4.00;;;12.80;79.50;;;;;;5112990;28;20028;-74
2023/01/05 10:39:10;;;;;;;19.10;3.53;;;12.80;79.50;;;;;;5123090;27;20036;-76
2023/01/05 10:42:04;;;;;;;17.73;4.05;;;12.80;79.40;;;;;;5099901;28;20020;-76
2023/01/05 10:44:45;;;;;;;16.60;3.25;;;12.80;79.50;;;;;;5108786;28;20384;-76
2023/01/05 10:47:12;;;;;;;23.15;4.55;;;12.80;79.50;;;;;;5115859;28;20127;-76
2023/01/05 10:49:41;;;;;;;16.42;3.55;;;12.80;80.20;;;;;;5112706;28;20024;-76
2023/01/05 10:52:16;;;;;;;17.65;3.92;;;12.80;79.50;;;;;;5110504;27;20039;-76
2023/01/05 10:54:50;;;;;;;18.98;4.15;;;12.80;79.50;;;;;;5109383;28;20051;-76
2023/01/05 10:57:28;;;;;;;21.42;4.47;;;12.90;79.50;;;;;;5095223;28;20128;-76
2023/01/05 10:59:57;;;;;;;18.20;4.07;;;12.80;79.40;;;;;;5103839;28;20110;-76
2023/01/05 11:02:24;;;;;;;16.20;3.63;;;12.80;79.30;;;;;;5115478;28;20084;-76
2023/01/05 11:04:51;;;;;;;22.25;4.75;;;12.80;79.30;;;;;;5111290;28;20353;-74
2023/01/05 11:07:18;;;;;;;18.00;3.67;;;12.90;79.30;;;;;;5115841;28;20040;-75
2023/01/05 11:09:46;;;;;;;20.27;3.92;;;12.90;80.00;;;;;;5109049;28;20107;-73
2023/01/05 11:12:19;;;;;;;17.65;4.35;;;12.90;79.40;;;;;;5094562;28;20036;-74
2023/01/05 11:14:49;;;;;;;17.40;3.63;;;12.90;79.30;;;;;;5122535;27;20050;-73
2023/01/05 11:17:19;;;;;;;19.15;4.85;;;12.90;79.30;;;;;;5113267;28;20339;-73
2023/01/05 11:19:49;;;;;;;21.02;4.18;;;12.90;79.20;;;;;;5096815;28;20382;-73
2023/01/05 11:22:30;;;;;;;19.67;3.85;;;13.00;79.20;;;;;;5115137;28;20035;-73
2023/01/05 11:25:29;;;;;;;18.40;3.92;;;13.00;79.20;;;;;;5094283;28;20105;-72
2023/01/05 11:28:14;;;;;;;16.27;3.38;;;13.00;79.00;;;;;;5119871;27;20059;-73
2023/01/05 11:31:02;;;;;;;18.45;4.07;;;13.00;79.10;;;;;;5111662;28;20415;-72
2023/01/05 11:33:32;;;;;;;19.42;4.32;;;13.00;79.00;;;;;;5111718;28;20024;-72
2023/01/05 11:35:58;;;;;;;22.02;4.50;;;13.10;79.10;;;;;;5117448;27;20058;-72
2023/01/05 11:38:27;;;;;;;16.42;3.83;;;13.10;79.00;;;;;;5112313;28;20528;-73
2023/01/05 11:40:57;;;;;;;20.33;4.38;;;13.10;79.00;;;;;;5111928;28;20043;-75
2023/01/05 11:43:26;;;;;;;22.70;5.47;;;13.10;78.90;;;;;;5089590;28;20092;-74
2023/01/05 11:45:59;;;;;;;15.73;3.42;;;13.20;78.90;;;;;;5108622;28;20024;-72
2023/01/05 11:48:28;;;;;;;19.70;3.75;;;13.20;78.80;;;;;;5109953;28;20032;-72
2023/01/05 11:50:57;;;;;;;23.15;4.35;;;13.20;78.60;;;;;;5111359;28;20095;-73
2023/01/05 11:53:34;;;;;;;14.88;3.65;;;13.30;78.60;;;;;;5113669;28;20454;-73
2023/01/05 11:56:03;;;;;;;18.10;4.45;;;13.30;78.60;;;;;;5102943;28;20043;-72
2023/01/05 11:58:42;;;;;;;21.13;4.65;;;13.30;78.60;;;;;;5106424;28;20359;-72
2023/01/05 12:01:38;;;;;;;24.10;5.25;;;13.30;78.60;;;;;;5084864;28;20403;-72
2023/01/05 12:04:03;;;;;;;16.63;4.55;;;13.30;78.50;;;;;;5104881;28;20040;-74
2023/01/05 12:06:44;;;;;;;18.60;4.30;;;13.30;78.60;;;;;;5109402;28;20031;-76
2023/01/05 12:09:23;;;;;;;17.38;3.72;;;13.40;78.70;;;;;;5112813;28;20329;-75
2023/01/05 12:12:10;;;;;;;20.75;5.00;;;13.40;78.60;;;;;;5109461;28;20031;-75
2023/01/05 12:15:08;;;;;;;21.10;5.32;;;13.40;78.60;;;;;;5113352;28;20020;-75
2023/01/05 12:17:43;;;;;;;15.30;3.58;;;13.50;78.50;;;;;;5103472;28;20043;-75
2023/01/05 12:20:27;;;;;;;19.75;4.75;;;13.50;78.40;;;;;;5125096;28;20034;-76
2023/01/05 12:23:04;;;;;;;22.92;4.75;;;13.50;78.30;;;;;;5122111;28;20031;-76
2023/01/05 12:26:03;;;;;;;19.10;4.93;;;13.50;78.30;;;;;;5105480;28;20460;-74
2023/01/05 12:28:47;;;;;;;22.42;4.57;;;13.50;78.10;;;;;;5106939;28;20081;-74
2023/01/05 12:31:25;;;;;;;16.23;3.78;;;13.50;78.10;;;;;;5110394;28;20028;-74
2023/01/05 12:33:50;;;;;;;20.25;4.40;;;13.60;78.10;;;;;;5090363;28;20181;-74
2023/01/05 12:36:27;;;;;;;20.17;4.55;;;13.60;77.90;;;;;;5109985;28;20496;-75
2023/01/05 12:39:37;;;;;;;19.02;4.50;;;13.70;77.70;;;;;;5109493;28;20031;-75
2023/01/05 12:42:31;;;;;;;23.02;4.38;;;13.80;77.50;;;;;;5113241;28;20035;-74
2023/01/05 12:45:59;;;;;;;20.55;4.30;;;13.80;77.40;;;;;;5111059;28;20126;-74
2023/01/05 12:48:40;;;;;;;18.45;5.13;;;13.80;77.30;;;;;;5068488;28;20083;-74
2023/01/05 12:51:22;;;;;;;19.60;3.70;;;13.80;77.30;;;;;;5070423;28;20097;-74
2023/01/05 12:53:57;;;;;;;17.35;4.25;;;13.80;77.20;;;;;;5069896;28;20033;-74
2023/01/05 12:56:29;;;;;;;18.55;4.75;;;13.80;77.20;;;;;;5071304;28;20040;-74
2023/01/05 12:59:13;;;;;;;16.05;4.55;;;13.80;77.10;;;;;;5069274;28;20033;-74
2023/01/05 13:01:48;;;;;;;16.60;3.85;;;13.80;77.00;;;;;;5069017;28;20062;-75
2023/01/05 13:04:29;;;;;;;20.27;4.70;;;13.80;77.00;;;;;;5034716;28;20041;-74
2023/01/05 13:06:57;;;;;;;17.23;4.35;;;13.80;76.90;;;;;;5052741;28;20081;-74
2023/01/05 13:09:29;;;;;;;13.88;4.10;;;13.80;76.90;;;;;;5074579;28;20054;-74
2023/01/05 13:12:03;;;;;;;16.48;4.40;;;13.80;76.90;;;;;;5073389;28;20037;-74
2023/01/05 13:14:35;;;;;;;19.27;4.65;;;13.80;76.80;;;;;;5057160;28;20044;-74
2023/01/05 13:17:13;;;;;;;14.48;4.68;;;13.80;76.80;;;;;;5056830;28;20039;-75
2023/01/05 13:19:49;;;;;;;20.98;4.47;;;13.80;76.80;;;;;;5056950;28;20037;-75
2023/01/05 13:22:29;;;;;;;19.23;4.40;;;13.80;76.70;;;;;;5091708;28;20122;-74
2023/01/05 13:25:02;;;;;;;20.67;4.60;;;13.80;76.60;;;;;;5114061;28;20355;-75
2023/01/05 13:27:29;;;;;;;17.02;4.28;;;13.80;76.50;;;;;;5113465;28;20028;-75
2023/01/05 13:29:58;;;;;;;16.55;4.28;;;13.80;76.50;;;;;;5116090;28;20497;-75
2023/01/05 13:33:01;;;;;;;15.90;4.05;;;13.70;76.30;;;;;;5115824;28;20027;-75